createdAt,value
2023-01-30T00:00:06.660Z,34.58
2023-01-30T00:01:06.596Z,34.58
2023-01-30T00:02:06.592Z,34.58
2023-01-30T00:03:06.473Z,34.56
2023-01-30T00:04:06.487Z,34.56
2023-01-30T00:05:06.377Z,34.55
2023-01-30T00:06:06.279Z,34.55
2023-01-30T00:07:06.223Z,34.56
2023-01-30T00:08:06.148Z,34.54
2023-01-30T00:09:06.088Z,34.52
2023-01-30T00:10:06.022Z,34.53
2023-01-30T00:11:06.032Z,34.53
2023-01-30T00:12:05.900Z,34.52
2023-01-30T00:13:05.839Z,34.51
2023-01-30T00:14:06.250Z,34.51
2023-01-30T00:15:05.706Z,34.53
2023-01-30T00:16:05.702Z,34.50
2023-01-30T00:17:05.589Z,34.49
2023-01-30T00:18:05.526Z,34.49
2023-01-30T00:19:05.458Z,34.47
2023-01-30T00:20:05.387Z,34.45
2023-01-30T00:21:05.322Z,34.43
2023-01-30T00:22:05.335Z,34.43
2023-01-30T00:23:05.419Z,34.42
2023-01-30T00:24:05.353Z,34.40
2023-01-30T00:25:05.480Z,34.42
2023-01-30T00:26:05.407Z,34.40
2023-01-30T00:27:05.373Z,34.43
2023-01-30T00:28:05.382Z,34.41
2023-01-30T00:29:05.390Z,34.39
2023-01-30T00:30:05.400Z,34.39
2023-01-30T00:31:05.469Z,34.40
2023-01-30T00:32:05.478Z,34.37
2023-01-30T00:33:05.437Z,34.37
2023-01-30T00:34:05.436Z,34.33
2023-01-30T00:35:05.417Z,34.33
2023-01-30T00:36:05.501Z,34.30
2023-01-30T00:37:08.378Z,34.28
2023-01-30T00:38:05.384Z,34.27
2023-01-30T00:39:05.320Z,34.25
2023-01-30T00:40:05.247Z,34.22
2023-01-30T00:41:05.172Z,34.19
2023-01-30T00:42:05.104Z,34.20
2023-01-30T00:43:05.041Z,34.18
2023-01-30T00:44:05.057Z,34.19
2023-01-30T00:45:04.940Z,34.18
2023-01-30T00:46:04.955Z,34.14
2023-01-30T00:47:04.802Z,34.13
2023-01-30T00:48:04.743Z,34.14
2023-01-30T00:49:04.687Z,34.13
2023-01-30T00:50:04.610Z,34.12
2023-01-30T00:51:05.232Z,34.10
2023-01-30T00:52:04.486Z,34.09
2023-01-30T00:53:04.435Z,34.06
2023-01-30T00:54:04.388Z,34.06
2023-01-30T00:55:04.313Z,34.07
2023-01-30T00:56:04.306Z,34.04
2023-01-30T00:57:04.174Z,34.03
2023-01-30T00:58:04.129Z,34.04
2023-01-30T00:59:04.071Z,34.02
2023-01-30T01:00:04.016Z,34.00
2023-01-30T01:01:03.950Z,34.03
2023-01-30T01:02:04.013Z,34.00
2023-01-30T01:03:03.841Z,34.01
2023-01-30T01:04:03.776Z,34.00
2023-01-30T01:05:03.707Z,34.00
2023-01-30T01:06:03.644Z,34.00
2023-01-30T01:07:03.575Z,34.00
2023-01-30T01:08:03.569Z,33.94
2023-01-30T01:09:03.540Z,33.95
2023-01-30T01:10:03.391Z,33.94
2023-01-30T01:11:03.392Z,33.90
2023-01-30T01:12:03.258Z,33.89
2023-01-30T01:50:02.845Z,33.05
2023-01-30T01:52:02.818Z,33.02
2023-01-30T01:53:02.796Z,33.00
2023-01-30T01:54:02.764Z,32.99
2023-01-30T01:55:02.752Z,32.98
2023-01-30T01:56:02.708Z,32.94
2023-01-30T01:57:02.689Z,32.98
2023-01-30T01:58:02.659Z,32.94
2023-01-30T01:59:02.636Z,32.93
2023-01-30T02:00:02.620Z,32.90
2023-01-30T02:01:02.595Z,32.86
2023-01-30T02:02:02.584Z,32.83
2023-01-30T02:03:02.543Z,32.78
2023-01-30T02:04:02.504Z,32.79
2023-01-30T02:05:02.514Z,32.75
2023-01-30T02:06:02.496Z,32.71
2023-01-30T02:07:02.462Z,32.69
2023-01-30T02:08:02.417Z,32.70
2023-01-30T02:09:02.373Z,32.63
2023-01-30T02:10:02.359Z,32.63
2023-01-30T02:11:02.325Z,32.61
2023-01-30T02:12:02.271Z,32.60
2023-01-30T02:13:02.250Z,32.58
2023-01-30T02:14:02.221Z,32.55
2023-01-30T02:15:02.178Z,32.56
2023-01-30T02:16:02.168Z,32.54
2023-01-30T02:17:02.120Z,32.55
2023-01-30T02:18:02.089Z,32.55
2023-01-30T02:19:02.064Z,32.50
2023-01-30T02:20:02.033Z,32.52
2023-01-30T02:21:01.993Z,32.47
2023-01-30T02:22:01.966Z,32.44
2023-01-30T02:23:01.929Z,32.44
2023-01-30T02:24:01.880Z,32.43
2023-01-30T02:25:01.847Z,32.42
2023-01-30T02:26:01.803Z,32.40
2023-01-30T02:27:01.787Z,32.40
2023-01-30T02:28:01.732Z,32.38
2023-01-30T02:29:01.687Z,32.39
2023-01-30T02:30:01.654Z,32.38
2023-01-30T02:31:01.757Z,32.36
2023-01-30T02:32:01.594Z,32.31
2023-01-30T02:33:01.562Z,32.33
2023-01-30T02:34:01.493Z,32.33
2023-01-30T02:35:01.443Z,32.31
2023-01-30T02:36:01.409Z,32.30
2023-01-30T02:37:01.365Z,32.28
2023-01-30T02:38:01.343Z,32.29
2023-01-30T02:39:01.286Z,32.25
2023-01-30T02:40:01.263Z,32.25
2023-01-30T02:41:01.206Z,32.22
2023-01-30T02:42:01.181Z,32.23
2023-01-30T02:43:01.154Z,32.20
2023-01-30T02:44:01.107Z,32.19
2023-01-30T02:45:01.158Z,32.18
2023-01-30T02:46:01.066Z,32.16
2023-01-30T02:47:01.010Z,32.17
2023-01-30T02:48:00.949Z,32.13
2023-01-30T02:49:00.901Z,32.14
2023-01-30T02:50:00.868Z,32.13
2023-01-30T02:51:00.819Z,32.14
2023-01-30T02:52:00.777Z,32.13
2023-01-30T02:53:00.737Z,32.13
2023-01-30T02:54:00.703Z,32.10
2023-01-30T02:55:00.654Z,32.08
2023-01-30T02:56:00.725Z,32.05
2023-01-30T02:57:00.596Z,32.01
2023-01-30T02:58:00.521Z,32.04
2023-01-30T02:59:00.487Z,32.01
2023-01-30T03:00:00.448Z,31.98
2023-01-30T03:01:00.487Z,31.97
2023-01-30T03:02:00.362Z,31.92
2023-01-30T03:03:00.372Z,31.94
2023-01-30T03:04:00.293Z,31.92
2023-01-30T03:05:00.232Z,31.90
2023-01-30T03:06:00.186Z,31.87
2023-01-30T03:07:00.162Z,31.86
2023-01-30T03:08:00.123Z,31.87
2023-01-30T03:09:00.099Z,31.82
2023-01-30T03:10:00.045Z,31.82
2023-01-30T03:11:00.012Z,31.80
2023-01-30T03:11:59.950Z,31.78
2023-01-30T03:12:59.908Z,31.74
2023-01-30T03:13:59.860Z,31.74
2023-01-30T03:14:59.853Z,31.69
2023-01-30T03:15:59.898Z,31.69
2023-01-30T03:16:59.776Z,31.71
2023-01-30T03:17:59.704Z,31.70
2023-01-30T03:18:59.731Z,31.68
2023-01-30T03:19:59.630Z,31.66
2023-01-30T03:20:59.588Z,31.63
2023-01-30T03:21:59.588Z,31.61
2023-01-30T03:22:59.550Z,31.62
2023-01-30T03:23:59.503Z,31.63
2023-01-30T03:24:59.470Z,31.61
2023-01-30T03:25:59.430Z,31.57
2023-01-30T03:26:59.430Z,31.54
2023-01-30T03:27:59.370Z,31.53
2023-01-30T03:28:59.329Z,31.50
2023-01-30T03:29:59.301Z,31.47
2023-01-30T03:30:59.343Z,31.47
2023-01-30T03:31:59.303Z,31.43
2023-01-30T03:32:59.198Z,31.45
2023-01-30T03:33:59.156Z,31.44
2023-01-30T03:34:59.138Z,31.42
2023-01-30T03:35:59.787Z,31.40
2023-01-30T03:36:59.062Z,31.39
2023-01-30T03:37:59.033Z,31.38
2023-01-30T03:38:59.001Z,31.36
2023-01-30T03:39:58.964Z,31.34
2023-01-30T03:40:58.936Z,31.35
2023-01-30T03:41:58.895Z,31.30
2023-01-30T03:42:58.870Z,31.30
2023-01-30T03:43:59.288Z,31.28
2023-01-30T03:44:58.805Z,31.26
2023-01-30T03:45:58.793Z,31.26
2023-01-30T03:46:58.739Z,31.26
2023-01-30T03:47:58.689Z,31.20
2023-01-30T03:48:58.663Z,31.21
2023-01-30T03:49:58.627Z,31.23
2023-01-30T03:50:58.591Z,31.23
2023-01-30T03:51:58.545Z,31.16
2023-01-30T03:52:58.518Z,31.20
2023-01-30T03:53:58.492Z,31.17
2023-01-30T03:54:58.445Z,31.17
2023-01-30T03:55:58.428Z,31.16
2023-01-30T03:56:58.365Z,31.16
2023-01-30T03:57:58.346Z,31.15
2023-01-30T03:58:58.302Z,31.15
2023-01-30T03:59:58.262Z,31.15
2023-01-30T04:00:58.249Z,31.14
2023-01-30T04:01:58.186Z,31.16
2023-01-30T04:02:58.135Z,31.17
2023-01-30T04:03:58.091Z,31.16
2023-01-30T04:04:58.063Z,31.16
2023-01-30T04:05:58.011Z,31.12
2023-01-30T04:06:58.061Z,31.14
2023-01-30T04:07:57.940Z,31.15
2023-01-30T04:08:58.793Z,31.14
2023-01-30T04:09:57.856Z,31.12
2023-01-30T04:10:57.804Z,31.12
2023-01-30T04:11:57.758Z,31.11
2023-01-30T04:12:57.733Z,31.11
2023-01-30T04:13:57.685Z,31.11
2023-01-30T04:14:57.636Z,31.11
2023-01-30T04:15:57.605Z,31.11
2023-01-30T04:16:57.633Z,31.10
2023-01-30T04:17:57.530Z,31.06
2023-01-30T04:18:57.485Z,31.07
2023-01-30T04:19:57.440Z,31.07
2023-01-30T04:20:57.399Z,31.08
2023-01-30T04:21:57.380Z,31.08
2023-01-30T04:22:57.319Z,31.08
2023-01-30T04:23:57.352Z,31.07
2023-01-30T04:24:57.249Z,31.04
2023-01-30T04:25:57.179Z,31.06
2023-01-30T04:26:57.133Z,31.06
2023-01-30T04:27:57.173Z,31.05
2023-01-30T04:28:57.125Z,31.05
2023-01-30T04:29:57.026Z,31.04
2023-01-30T04:30:57.097Z,31.02
2023-01-30T04:31:56.931Z,31.05
2023-01-30T04:32:56.888Z,31.03
2023-01-30T04:33:56.852Z,31.06
2023-01-30T04:34:56.818Z,31.04
2023-01-30T04:35:56.766Z,31.01
2023-01-30T04:36:57.303Z,31.01
2023-01-30T04:37:56.695Z,31.00
2023-01-30T04:38:57.304Z,31.00
2023-01-30T04:39:56.616Z,31.00
2023-01-30T04:40:56.552Z,30.99
2023-01-30T04:41:56.590Z,30.98
2023-01-30T04:42:57.361Z,30.98
2023-01-30T04:43:56.425Z,31.00
2023-01-30T04:44:56.383Z,30.99
2023-01-30T04:45:56.341Z,31.00
2023-01-30T04:46:56.281Z,30.97
2023-01-30T04:47:56.232Z,30.95
2023-01-30T04:48:56.200Z,30.99
2023-01-30T04:49:56.156Z,30.94
2023-01-30T04:50:56.122Z,30.96
2023-01-30T04:51:56.072Z,30.96
2023-01-30T04:52:56.030Z,30.94
2023-01-30T04:53:56.001Z,30.98
2023-01-30T04:54:55.953Z,30.96
2023-01-30T04:55:55.928Z,30.96
2023-01-30T04:56:55.867Z,30.96
2023-01-30T04:57:55.830Z,30.93
2023-01-30T04:58:55.787Z,30.93
2023-01-30T04:59:55.744Z,30.96
2023-01-30T05:00:55.739Z,30.93
2023-01-30T05:01:55.690Z,30.93
2023-01-30T05:02:55.630Z,30.96
2023-01-30T05:03:55.589Z,30.95
2023-01-30T05:04:55.535Z,30.93
2023-01-30T05:05:55.497Z,30.94
2023-01-30T05:06:55.522Z,30.94
2023-01-30T05:07:55.535Z,30.94
2023-01-30T05:09:55.316Z,30.94
2023-01-30T05:10:55.264Z,30.93
2023-01-30T05:11:55.223Z,30.89
2023-01-30T05:12:55.165Z,30.90
2023-01-30T05:13:55.125Z,30.90
2023-01-30T05:59:53.157Z,30.28
2023-01-30T06:04:52.935Z,30.15
2023-01-30T06:05:52.961Z,30.13
2023-01-30T06:06:52.844Z,30.09
2023-01-30T06:07:52.869Z,30.06
2023-01-30T06:09:52.693Z,30.04
2023-01-30T06:10:52.659Z,30.02
2023-01-30T06:11:53.343Z,30.02
2023-01-30T06:12:52.652Z,29.99
2023-01-30T06:13:52.537Z,29.97
2023-01-30T06:14:52.501Z,29.96
2023-01-30T06:15:52.543Z,29.94
2023-01-30T06:16:53.423Z,29.92
2023-01-30T06:17:52.371Z,29.89
2023-01-30T06:18:52.332Z,29.90
2023-01-30T06:19:52.286Z,29.87
2023-01-30T06:20:52.251Z,29.85
2023-01-30T06:21:52.244Z,29.84
2023-01-30T06:22:52.185Z,29.88
2023-01-30T06:23:52.155Z,30.11
2023-01-30T06:24:52.144Z,30.21
2023-01-30T06:25:52.186Z,30.36
2023-01-30T06:26:52.192Z,30.35
2023-01-30T06:27:52.050Z,30.46
2023-01-30T06:28:52.037Z,30.44
2023-01-30T06:29:51.972Z,30.41
2023-01-30T06:30:52.025Z,30.42
2023-01-30T06:31:51.903Z,30.42
2023-01-30T06:32:52.842Z,30.42
2023-01-30T06:33:51.853Z,30.40
2023-01-30T06:34:51.779Z,30.38
2023-01-30T06:36:51.715Z,30.33
2023-01-30T06:37:51.663Z,30.31
2023-01-30T06:38:51.613Z,30.28
2023-01-30T06:39:51.579Z,30.28
2023-01-30T06:40:51.528Z,30.26
2023-01-30T06:41:51.487Z,30.24
2023-01-30T06:42:51.454Z,30.25
2023-01-30T06:43:51.413Z,30.20
2023-01-30T06:44:51.349Z,30.16
2023-01-30T06:45:51.311Z,30.16
2023-01-30T06:46:51.268Z,30.14
2023-01-30T06:47:51.298Z,30.12
2023-01-30T06:48:51.176Z,30.12
2023-01-30T06:49:51.138Z,30.09
2023-01-30T06:50:51.124Z,30.06
2023-01-30T06:57:53.347Z,30.00
2023-01-30T09:44:43.145Z,41.04
2023-01-30T09:45:43.073Z,41.09
2023-01-30T09:46:43.001Z,41.22
2023-01-30T09:47:42.917Z,41.31
2023-01-30T09:48:42.941Z,41.47
2023-01-30T09:49:42.792Z,41.57
2023-01-30T09:50:42.706Z,41.64
2023-01-30T09:51:42.647Z,41.74
2023-01-30T09:52:42.571Z,41.86
2023-01-30T09:53:42.508Z,42.06
2023-01-30T09:54:42.501Z,42.17
2023-01-30T09:55:42.405Z,42.30
2023-01-30T09:56:42.279Z,42.53
2023-01-30T09:57:42.209Z,42.68
2023-01-30T09:58:42.143Z,42.79
2023-01-30T09:59:42.050Z,42.87
2023-01-30T10:00:41.984Z,43.08
2023-01-30T10:01:41.898Z,43.26
2023-01-30T10:02:41.838Z,43.49
2023-01-30T10:03:41.830Z,43.64
2023-01-30T10:04:51.713Z,43.70
2023-01-30T10:05:42.622Z,43.84
2023-01-30T10:06:41.556Z,44.07
2023-01-30T10:07:41.493Z,44.08
2023-01-30T10:08:41.386Z,44.25
2023-01-30T10:09:41.315Z,44.33
2023-01-30T10:10:41.229Z,44.35
2023-01-30T10:11:41.136Z,44.42
2023-01-30T11:23:37.436Z,41.02
2023-01-30T11:24:37.536Z,40.94
2023-01-30T11:25:37.354Z,40.88
2023-01-30T11:26:46.770Z,40.81
2023-01-30T11:27:38.151Z,40.75
2023-01-30T11:28:37.053Z,40.67
2023-01-30T11:29:36.969Z,40.63
2023-01-30T11:30:36.900Z,40.61
2023-01-30T11:31:41.604Z,40.55
2023-01-30T11:32:37.756Z,40.52
2023-01-30T11:33:36.637Z,40.49
2023-01-30T11:34:36.545Z,40.44
2023-01-30T11:35:36.462Z,40.36
2023-01-30T11:36:36.380Z,40.34
2023-01-30T11:37:36.287Z,40.27
2023-01-30T11:38:36.203Z,40.22
2023-01-30T11:39:36.122Z,40.16
2023-01-30T11:40:36.039Z,40.13
2023-01-30T11:41:35.961Z,40.07
2023-01-30T11:42:35.876Z,40.04
2023-01-30T11:43:35.781Z,40.02
2023-01-30T11:44:35.734Z,39.93
2023-01-30T11:45:35.616Z,39.89
2023-01-30T11:46:35.515Z,39.85
2023-01-30T11:47:35.658Z,39.82
2023-01-30T11:49:04.123Z,39.76
2023-01-30T11:49:49.566Z,39.74
2023-01-30T11:50:36.413Z,39.70
2023-01-30T11:51:35.048Z,39.68
2023-01-30T11:52:34.952Z,39.62
2023-01-30T11:53:34.862Z,39.48
2023-01-30T11:54:34.758Z,39.46
2023-01-30T11:55:34.670Z,39.43
2023-01-30T11:56:34.582Z,39.36
2023-01-30T11:57:34.546Z,39.35
2023-01-30T11:58:34.517Z,39.38
2023-01-30T11:59:34.483Z,39.30
2023-01-30T12:00:34.468Z,39.26
2023-01-30T12:01:34.469Z,39.22
2023-01-30T12:02:34.533Z,39.25
2023-01-30T12:04:34.372Z,39.22
2023-01-30T12:05:34.423Z,39.17
2023-01-30T12:06:34.339Z,39.15
2023-01-30T12:07:34.302Z,39.06
2023-01-30T12:08:41.926Z,39.05
2023-01-30T12:09:35.175Z,39.09
2023-01-30T12:10:34.090Z,39.11
2023-01-30T12:11:33.988Z,39.01
2023-01-30T12:12:33.927Z,39.00
2023-01-30T12:13:33.806Z,38.89
2023-01-30T12:14:34.445Z,38.86
2023-01-30T12:15:33.613Z,38.81
2023-01-30T12:16:33.593Z,38.79
2023-01-30T12:17:33.498Z,38.73
2023-01-30T12:18:33.403Z,38.69
2023-01-30T12:19:33.288Z,38.66
2023-01-30T12:20:33.948Z,38.60
2023-01-30T12:21:33.257Z,38.56
2023-01-30T12:22:33.159Z,38.51
2023-01-30T12:23:33.119Z,38.47
2023-01-30T12:24:33.168Z,38.41
2023-01-30T12:25:33.025Z,38.36
2023-01-30T12:26:33.030Z,38.31
2023-01-30T12:27:32.962Z,38.19
2023-01-30T12:28:32.927Z,38.14
2023-01-30T12:29:32.886Z,38.13
2023-01-30T12:30:32.971Z,38.09
2023-01-30T12:31:32.830Z,38.02
2023-01-30T12:33:32.797Z,37.91
2023-01-30T12:34:32.706Z,37.86
2023-01-30T12:35:32.690Z,37.85
2023-01-30T12:36:32.968Z,37.80
2023-01-30T12:37:32.611Z,37.75
2023-01-30T12:38:32.570Z,37.73
2023-01-30T12:39:32.534Z,37.72
2023-01-30T12:40:32.487Z,37.68
2023-01-30T12:41:32.461Z,37.65
2023-01-30T12:42:32.395Z,37.60
2023-01-30T12:43:32.959Z,37.56
2023-01-30T12:44:32.309Z,37.55
2023-01-30T12:45:32.271Z,37.50
2023-01-30T12:46:32.299Z,37.48
2023-01-30T12:47:32.341Z,37.45
2023-01-30T12:48:34.199Z,37.43
2023-01-30T12:49:33.033Z,37.36
2023-01-30T12:50:31.929Z,37.34
2023-01-30T12:51:31.821Z,37.29
2023-01-30T12:52:31.757Z,37.25
2023-01-30T12:53:31.640Z,37.25
2023-01-30T12:54:31.524Z,37.21
2023-01-30T13:42:27.311Z,36.16
2023-01-30T13:43:27.239Z,36.14
2023-01-30T13:44:27.179Z,36.14
2023-01-30T13:45:27.128Z,36.21
2023-01-30T13:47:26.983Z,36.27
2023-01-30T13:48:26.924Z,36.29
2023-01-30T13:49:26.917Z,36.31
2023-01-30T13:50:26.827Z,36.38
2023-01-30T13:51:26.783Z,36.39
2023-01-30T13:52:26.757Z,36.43
2023-01-30T13:53:26.696Z,36.46
2023-01-30T13:54:26.659Z,36.42
2023-01-30T13:55:26.668Z,36.43
2023-01-30T13:56:40.907Z,36.45
2023-01-30T13:58:26.410Z,36.52
2023-01-30T13:59:26.328Z,36.50
2023-01-30T14:00:27.023Z,36.52
2023-01-30T14:02:26.112Z,36.51
2023-01-30T14:03:25.961Z,36.53
2023-01-30T14:04:25.867Z,36.53
2023-01-30T14:05:34.610Z,36.54
2023-01-30T14:06:26.685Z,36.56
2023-01-30T14:07:25.693Z,36.63
2023-01-30T14:08:25.546Z,36.59
2023-01-30T14:09:25.429Z,36.64
2023-01-30T14:10:25.384Z,36.64
2023-01-30T14:11:25.238Z,36.60
2023-01-30T14:12:25.168Z,36.57
2023-01-30T14:13:26.004Z,36.56
2023-01-30T14:14:25.484Z,36.48
2023-01-30T14:15:24.915Z,36.50
2023-01-30T14:16:24.858Z,36.47
2023-01-30T14:17:24.728Z,36.47
2023-01-30T14:18:24.627Z,36.49
2023-01-30T14:19:24.534Z,36.50
2023-01-30T14:20:24.994Z,36.46
2023-01-30T14:21:24.442Z,36.54
2023-01-30T14:22:24.279Z,36.42
2023-01-30T14:23:24.186Z,36.09
2023-01-30T14:24:24.083Z,35.86
2023-01-30T14:26:23.943Z,35.49
2023-01-30T14:48:22.262Z,36.45
2023-01-30T14:55:22.082Z,36.66
2023-01-30T14:56:22.016Z,36.72
2023-01-30T14:57:22.002Z,36.74
2023-01-30T14:58:21.996Z,36.76
2023-01-30T15:00:21.946Z,36.79
2023-01-30T15:01:22.003Z,36.79
2023-01-30T15:02:21.977Z,36.79
2023-01-30T15:03:21.911Z,36.79
2023-01-30T15:04:21.891Z,36.79
2023-01-30T15:05:21.927Z,36.77
2023-01-30T15:07:21.835Z,36.82
2023-01-30T15:08:22.448Z,36.84
2023-01-30T15:09:21.839Z,36.84
2023-01-30T15:10:21.778Z,36.83
2023-01-30T15:11:21.677Z,36.80
2023-01-30T15:12:21.619Z,36.82
2023-01-30T15:13:21.519Z,36.84
2023-01-30T15:14:21.468Z,36.80
2023-01-30T17:17:15.620Z,37.24
2023-01-30T17:18:15.567Z,37.20
2023-01-30T17:19:15.519Z,37.10
2023-01-30T17:20:15.512Z,36.99
2023-01-30T18:30:17.196Z,37.04
2023-01-30T18:31:14.775Z,37.06
2023-01-30T18:32:14.547Z,37.10
2023-01-30T18:33:14.476Z,37.07
2023-01-30T18:34:14.391Z,37.07
2023-01-30T18:35:14.328Z,37.09
2023-01-30T18:36:14.265Z,37.08
2023-01-30T18:37:14.174Z,37.10
2023-01-30T18:38:14.109Z,37.11
2023-01-30T18:39:14.024Z,37.06
2023-01-30T18:40:14.087Z,37.07
2023-01-30T18:41:13.914Z,37.09
2023-01-30T18:42:13.809Z,37.09
2023-01-30T18:43:13.733Z,37.07
2023-01-30T18:44:13.670Z,37.07
2023-01-30T18:45:13.687Z,37.08
2023-01-30T18:46:13.561Z,37.08
2023-01-30T18:47:13.447Z,37.09
2023-01-30T18:48:13.388Z,37.09
2023-01-30T18:49:13.315Z,37.07
2023-01-30T18:50:13.259Z,37.09
2023-01-30T18:51:14.083Z,37.08
2023-01-30T18:52:13.115Z,37.08
2023-01-30T18:53:13.057Z,37.08
2023-01-30T18:54:12.980Z,37.06
2023-01-30T18:55:12.908Z,37.05
2023-01-30T18:56:12.837Z,37.06
2023-01-30T18:57:12.766Z,37.06
2023-01-30T18:58:12.745Z,37.06
2023-01-30T18:59:12.608Z,37.08
2023-01-30T19:00:12.556Z,37.08
2023-01-30T19:01:12.493Z,37.09
2023-01-30T19:02:12.510Z,37.09
2023-01-30T19:03:13.076Z,37.07
2023-01-30T19:04:12.271Z,37.06
2023-01-30T19:05:12.197Z,37.07
2023-01-30T19:06:12.132Z,37.08
2023-01-30T19:07:12.135Z,37.06
2023-01-30T19:08:12.126Z,37.08
2023-01-30T19:09:12.155Z,37.05
2023-01-30T19:10:12.130Z,37.06
2023-01-30T19:11:12.124Z,37.05
2023-01-30T19:12:12.137Z,37.08
2023-01-30T19:13:13.101Z,37.06
2023-01-30T19:14:12.100Z,37.07
2023-01-30T19:15:12.150Z,37.05
2023-01-30T19:16:12.173Z,37.06
2023-01-30T19:17:12.113Z,37.07
2023-01-30T19:18:12.016Z,37.06
2023-01-30T19:19:11.985Z,37.05
2023-01-30T19:20:12.006Z,37.05
2023-01-30T19:21:11.954Z,37.06
2023-01-30T19:22:11.984Z,37.04
2023-01-30T19:23:11.938Z,37.03
2023-01-30T19:24:12.099Z,37.07
2023-01-30T19:25:11.858Z,37.04
2023-01-30T19:26:11.883Z,37.05
2023-01-30T19:27:11.788Z,37.05
2023-01-30T19:28:11.783Z,37.07
2023-01-30T19:29:11.771Z,37.06
2023-01-30T19:30:11.693Z,37.03
2023-01-30T19:31:11.685Z,37.05
2023-01-30T19:32:11.608Z,37.05
2023-01-30T19:33:11.551Z,37.05
2023-01-30T19:34:11.511Z,37.05
2023-01-30T19:35:11.440Z,37.04
2023-01-30T19:36:11.384Z,37.03
2023-01-30T19:37:11.348Z,37.04
2023-01-30T19:38:11.273Z,37.05
2023-01-30T19:39:11.223Z,37.06
2023-01-30T19:40:11.178Z,37.05
2023-01-30T19:41:11.179Z,37.04
2023-01-30T19:42:11.066Z,37.05
2023-01-30T19:43:11.321Z,37.04
2023-01-30T19:44:10.999Z,37.05
2023-01-30T19:45:10.951Z,37.03
2023-01-30T19:46:11.029Z,37.02
2023-01-30T19:47:10.869Z,37.05
2023-01-30T19:48:10.815Z,37.04
2023-01-30T19:49:10.761Z,37.05
2023-01-30T19:50:10.819Z,37.04
2023-01-30T19:51:10.672Z,37.04
2023-01-30T19:52:10.633Z,37.02
2023-01-30T19:53:10.567Z,37.02
2023-01-30T19:54:10.534Z,37.03
2023-01-30T19:55:10.430Z,37.02
2023-01-30T19:56:10.362Z,37.01
2023-01-30T19:57:10.302Z,37.02
2023-01-30T19:58:10.238Z,37.04
2023-01-30T19:59:10.169Z,37.04
2023-01-30T20:00:10.084Z,37.03
2023-01-30T20:01:10.058Z,37.02
2023-01-30T20:02:09.969Z,37.03
2023-01-30T20:03:09.966Z,37.02
2023-01-30T20:04:09.863Z,37.04
2023-01-30T20:05:09.782Z,37.02
2023-01-30T20:06:12.076Z,37.00
2023-01-30T20:07:09.639Z,37.04
2023-01-30T20:08:10.997Z,37.03
2023-01-30T20:09:10.488Z,37.05
2023-01-30T20:10:09.428Z,37.02
2023-01-30T20:11:09.359Z,37.02
2023-01-30T20:12:09.301Z,37.00
2023-01-30T20:13:09.218Z,37.01
2023-01-30T20:14:09.139Z,37.03
2023-01-30T20:15:09.071Z,37.01
2023-01-30T20:16:09.047Z,37.02
2023-01-30T20:17:08.946Z,37.00
2023-01-30T20:18:08.933Z,37.02
2023-01-30T20:19:08.809Z,37.02
2023-01-30T20:20:08.733Z,37.00
2023-01-30T20:21:08.651Z,37.02
2023-01-30T20:22:08.620Z,37.01
2023-01-30T20:23:08.510Z,37.01
2023-01-30T20:24:08.431Z,37.00
2023-01-30T20:25:08.381Z,37.01
2023-01-30T20:26:08.297Z,37.01
2023-01-30T20:27:08.226Z,37.00
2023-01-30T20:28:08.220Z,37.02
2023-01-30T20:29:08.082Z,36.99
2023-01-30T20:30:08.021Z,37.00
2023-01-30T20:31:08.133Z,36.98
2023-01-30T20:32:08.115Z,37.00
2023-01-30T20:33:07.799Z,37.00
2023-01-30T20:34:07.728Z,36.99
2023-01-30T20:35:07.647Z,36.99
2023-01-30T20:36:07.584Z,37.01
2023-01-30T20:37:07.500Z,37.00
2023-01-30T20:38:07.579Z,36.98
2023-01-30T20:39:07.713Z,36.99
2023-01-30T20:40:07.280Z,37.00
2023-01-30T20:41:07.211Z,37.00
2023-01-30T20:42:07.152Z,37.00
2023-01-30T20:43:07.061Z,37.00
2023-01-30T20:44:06.993Z,36.97
2023-01-30T20:45:06.928Z,36.96
2023-01-30T20:46:06.841Z,36.97
2023-01-30T20:47:06.894Z,36.98
2023-01-30T20:48:06.718Z,36.98
2023-01-30T20:49:06.641Z,36.97
2023-01-30T20:50:06.561Z,36.97
2023-01-30T20:51:06.502Z,36.98
2023-01-30T21:33:03.721Z,36.92
2023-01-30T21:34:03.673Z,36.95
2023-01-30T21:35:03.609Z,36.92
2023-01-30T21:36:03.563Z,36.92
2023-01-30T21:37:03.556Z,36.91
2023-01-30T21:38:03.432Z,36.91
2023-01-30T21:39:03.372Z,36.92
2023-01-30T21:40:03.304Z,36.89
2023-01-30T21:41:03.254Z,36.93
2023-01-30T21:42:03.219Z,36.90
2023-01-30T21:43:03.140Z,36.92
2023-01-30T21:44:03.085Z,36.90
2023-01-30T21:45:03.040Z,36.91
2023-01-30T21:46:03.035Z,36.92
2023-01-30T21:47:02.901Z,36.91
2023-01-30T21:48:02.857Z,36.92
2023-01-30T21:49:02.806Z,36.90
2023-01-30T21:50:02.749Z,36.90
2023-01-30T21:51:02.678Z,36.91
2023-01-30T21:52:02.612Z,36.94
2023-01-30T21:53:02.543Z,36.92
2023-01-30T21:54:02.496Z,36.91
2023-01-30T21:55:02.447Z,36.91
2023-01-30T21:56:02.399Z,36.89
2023-01-30T21:57:02.334Z,36.89
2023-01-30T21:58:02.263Z,36.91
2023-01-30T21:59:02.211Z,36.91
2023-01-30T22:00:02.174Z,36.88
2023-01-30T22:01:02.146Z,36.90
2023-01-30T22:02:02.043Z,36.88
2023-01-30T22:03:01.986Z,36.89
2023-01-30T22:04:01.926Z,36.90
2023-01-30T22:05:01.883Z,36.90
2023-01-30T22:06:02.161Z,36.89
2023-01-30T22:07:01.769Z,36.88
2023-01-30T22:08:01.705Z,36.88
2023-01-30T22:09:01.647Z,36.87
2023-01-30T22:10:01.600Z,36.88
2023-01-30T22:11:01.594Z,36.88
2023-01-30T22:12:01.501Z,36.87
2023-01-30T22:15:01.649Z,36.87
2023-01-30T23:32:57.219Z,36.71
2023-01-30T23:33:57.166Z,36.70
2023-01-30T23:34:57.110Z,36.70
2023-01-30T23:35:57.063Z,36.72
2023-01-30T23:36:57.006Z,36.71
2023-01-30T23:37:56.963Z,36.71
2023-01-30T23:38:56.910Z,36.70
2023-01-30T23:40:56.825Z,36.71
2023-01-30T23:41:56.755Z,36.70
2023-01-30T23:42:56.730Z,36.70
2023-01-30T23:43:56.657Z,36.67
2023-01-30T23:44:57.171Z,36.66
2023-01-30T23:45:56.587Z,36.68
2023-01-30T23:46:56.522Z,36.68
2023-01-30T23:47:56.470Z,36.66
2023-01-30T23:48:56.432Z,36.67
2023-01-30T23:49:56.387Z,36.64
2023-01-30T23:50:56.321Z,36.68
2023-01-30T23:51:56.280Z,36.67
2023-01-30T23:52:56.229Z,36.67
2023-01-30T23:53:56.175Z,36.66
2023-01-30T23:54:56.124Z,36.66
2023-01-30T23:55:56.081Z,36.66
2023-01-30T23:56:56.023Z,36.67
2023-01-30T23:57:55.975Z,36.66
2023-01-30T23:58:55.931Z,36.65
2023-01-30T23:59:55.875Z,36.65
